Fort Saint John, Canada
Current Conditions -  °F | °C
As of 11:00 AM on Saturday 20 Dec 2014 (Local Time) from CYXJ Reporting Station
Scattered Clouds Scattered Clouds  
Wind Chill: -10°   Ceiling: Unl
Heat Index: -10°   Visibility: 15mi
Dew Point: -12°   Wind: 3mph
Humidity: 86%   Direction: 90°E
Pressure: 29.42"   Gusts: NA
Location:  56.25°N, 120.85°W
Report Text: CYXJ 201800Z 09003KT 15SM SCT200 M10/M12 A2942 RMK CI3 SLP010
Loading
Personal Weather Stations






























Interactive Weather Map New forecast layout! Learn more

10-Day Weather Forecast

Advertisements
Track Severe Weather on mobile